Time;durP1;ratioP1;P1;durP2;ratioP2;P2;SDS_P1;SDS_P2;PMS_P1;PMS_P2;Temp;Humidity;BMP_temperature;BMP_pressure;BME280_temperature;BME280_humidity;BME280_pressure;Samples;Min_cycle;Max_cycle;Signal;HPM_P1;HPM_P2
2023/04/26 00:00:28;;;;;;;12.07;6.10;;;2.70;99.90;;;;;;4993788;28;20269;-57
2023/04/26 00:02:56;;;;;;;10.90;6.30;;;2.60;99.90;;;;;;4990876;28;20214;-57
2023/04/26 00:05:27;;;;;;;9.50;6.90;;;2.50;99.90;;;;;;4989596;28;20725;-57
2023/04/26 00:07:55;;;;;;;12.93;6.00;;;2.50;99.90;;;;;;4994022;28;20223;-57
2023/04/26 00:10:23;;;;;;;12.70;6.77;;;2.50;99.90;;;;;;4980275;28;20253;-56
2023/04/26 00:12:52;;;;;;;9.20;6.43;;;2.50;99.90;;;;;;4994966;28;20215;-57
2023/04/26 00:15:20;;;;;;;14.33;6.93;;;2.50;99.90;;;;;;4994557;28;20242;-55
2023/04/26 00:17:50;;;;;;;11.47;6.90;;;2.50;99.90;;;;;;4991534;28;20215;-56
2023/04/26 00:20:18;;;;;;;18.23;7.30;;;2.50;99.90;;;;;;4992041;28;20218;-57
2023/04/26 00:22:47;;;;;;;15.83;7.30;;;2.50;99.90;;;;;;4988972;28;20677;-57
2023/04/26 00:25:15;;;;;;;14.80;6.77;;;2.50;99.90;;;;;;4994282;28;20780;-57
2023/04/26 00:27:43;;;;;;;14.50;7.30;;;2.50;99.90;;;;;;4989922;28;20214;-57
2023/04/26 00:30:12;;;;;;;14.33;7.33;;;2.50;99.90;;;;;;4991196;28;20631;-57
2023/04/26 00:32:41;;;;;;;15.13;6.67;;;2.50;99.90;;;;;;4976777;28;20249;-55
2023/04/26 00:35:11;;;;;;;22.07;7.33;;;2.50;99.90;;;;;;4990113;28;20290;-56
2023/04/26 00:37:40;;;;;;;14.83;6.87;;;2.40;99.90;;;;;;4990888;28;20602;-56
2023/04/26 00:40:09;;;;;;;13.63;7.63;;;2.40;99.90;;;;;;4989769;28;20199;-56
2023/04/26 00:42:38;;;;;;;13.33;7.27;;;2.40;99.90;;;;;;4994572;28;20284;-57
2023/04/26 00:45:08;;;;;;;15.20;6.87;;;2.30;99.90;;;;;;4993873;28;20250;-57
2023/04/26 00:47:37;;;;;;;14.77;6.90;;;2.20;99.90;;;;;;4990883;28;20277;-57
2023/04/26 00:50:09;;;;;;;16.97;7.20;;;2.10;99.90;;;;;;4993820;28;20230;-57
2023/04/26 00:52:39;;;;;;;15.37;7.90;;;2.10;99.90;;;;;;4986095;28;20188;-57
2023/04/26 00:55:09;;;;;;;15.03;7.57;;;2.10;99.90;;;;;;4990521;28;20233;-55
2023/04/26 00:57:37;;;;;;;16.23;7.37;;;2.10;99.90;;;;;;4983032;28;20290;-57
2023/04/26 01:00:06;;;;;;;11.63;7.07;;;2.10;99.90;;;;;;4990901;28;20227;-57
2023/04/26 01:05:35;;;;;;;17.70;8.10;;;2.10;99.90;;;;;;5311132;23;20215;-62
2023/04/26 01:08:06;;;;;;;20.57;8.17;;;2.00;99.90;;;;;;4988929;28;20688;-62
2023/04/26 01:10:35;;;;;;;19.67;8.33;;;2.00;99.90;;;;;;4990278;28;20248;-62
2023/04/26 01:13:04;;;;;;;17.87;8.50;;;2.10;99.90;;;;;;4996653;28;20190;-63
2023/04/26 01:15:32;;;;;;;22.30;9.00;;;2.00;99.90;;;;;;4994393;28;20214;-64
2023/04/26 01:18:01;;;;;;;17.97;8.23;;;2.00;99.90;;;;;;4969845;28;20237;-63
2023/04/26 01:20:30;;;;;;;16.63;8.60;;;1.90;99.90;;;;;;4988543;28;20693;-62
2023/04/26 01:22:59;;;;;;;17.90;8.77;;;1.90;99.90;;;;;;4978097;28;20218;-63
2023/04/26 01:25:28;;;;;;;19.23;8.87;;;1.90;99.90;;;;;;4992180;28;20211;-62
2023/04/26 01:27:56;;;;;;;17.17;7.97;;;1.80;99.90;;;;;;4981051;28;20199;-62
2023/04/26 01:30:24;;;;;;;15.50;7.93;;;1.80;99.90;;;;;;4968297;28;20222;-62
2023/04/26 01:32:53;;;;;;;14.00;7.60;;;1.80;99.90;;;;;;4989948;28;20274;-62
2023/04/26 01:35:21;;;;;;;17.27;8.37;;;1.70;99.90;;;;;;4992696;28;20560;-62
2023/04/26 01:37:49;;;;;;;18.70;8.53;;;1.60;99.90;;;;;;4988682;28;20297;-62
2023/04/26 01:40:19;;;;;;;14.83;7.63;;;1.60;99.90;;;;;;4987419;28;20199;-62
2023/04/26 01:42:47;;;;;;;12.70;7.67;;;1.60;99.90;;;;;;4976411;28;20694;-64
2023/04/26 01:45:16;;;;;;;14.30;7.57;;;1.60;99.90;;;;;;4985984;28;20219;-62
2023/04/26 01:47:44;;;;;;;20.50;8.13;;;1.60;99.90;;;;;;4988303;28;20577;-62
2023/04/26 01:50:12;;;;;;;15.40;7.50;;;1.60;99.90;;;;;;4988294;28;20708;-62
2023/04/26 01:52:41;;;;;;;18.03;7.43;;;1.50;99.90;;;;;;4991329;28;20335;-62
2023/04/26 01:55:09;;;;;;;18.87;8.20;;;1.50;99.90;;;;;;4991019;28;20190;-63
2023/04/26 01:57:39;;;;;;;12.70;7.27;;;1.50;99.90;;;;;;4990427;28;20269;-63
2023/04/26 02:00:09;;;;;;;15.83;8.17;;;1.50;99.90;;;;;;4980510;28;20265;-62
2023/04/26 02:02:37;;;;;;;11.80;7.40;;;1.50;99.90;;;;;;4988648;28;20230;-62
2023/04/26 02:05:06;;;;;;;14.27;8.63;;;1.50;99.90;;;;;;4988265;28;20317;-62
2023/04/26 02:07:34;;;;;;;14.63;8.23;;;1.50;99.90;;;;;;4985230;28;20227;-62
2023/04/26 02:10:02;;;;;;;13.60;8.13;;;1.40;99.90;;;;;;4992164;28;20198;-63
2023/04/26 02:12:30;;;;;;;16.90;8.27;;;1.40;99.90;;;;;;4992533;28;20707;-63
2023/04/26 02:15:00;;;;;;;18.43;8.60;;;1.40;99.90;;;;;;4983197;28;20222;-62
2023/04/26 02:17:29;;;;;;;15.53;8.63;;;1.30;99.90;;;;;;4979608;28;20230;-62
2023/04/26 02:19:58;;;;;;;12.70;7.33;;;1.40;99.90;;;;;;4984812;28;20226;-62
2023/04/26 02:22:26;;;;;;;14.23;7.30;;;1.40;99.90;;;;;;4985526;28;20398;-62
2023/04/26 02:24:54;;;;;;;15.43;7.70;;;1.30;99.90;;;;;;4990241;28;20236;-62
2023/04/26 02:27:23;;;;;;;14.17;7.93;;;1.40;99.90;;;;;;4980926;28;20231;-63
2023/04/26 02:29:51;;;;;;;15.70;8.10;;;1.40;99.90;;;;;;4983589;28;20565;-62
2023/04/26 02:32:20;;;;;;;16.57;8.00;;;1.40;99.90;;;;;;4985558;28;20700;-62
2023/04/26 02:34:49;;;;;;;20.50;8.87;;;1.40;99.90;;;;;;4989497;28;20218;-62
2023/04/26 02:37:17;;;;;;;21.63;8.80;;;1.40;99.90;;;;;;4987155;28;20253;-63
2023/04/26 02:39:49;;;;;;;19.83;8.57;;;1.40;99.90;;;;;;4993234;28;20257;-62
2023/04/26 02:42:18;;;;;;;13.67;7.80;;;1.40;99.90;;;;;;4982240;28;20250;-62
2023/04/26 02:44:46;;;;;;;12.43;8.10;;;1.40;99.90;;;;;;4984224;28;20278;-63
2023/04/26 02:47:14;;;;;;;16.63;8.77;;;1.40;99.90;;;;;;4960783;28;20230;-62
2023/04/26 02:49:44;;;;;;;15.27;7.63;;;1.40;99.90;;;;;;4985133;28;20191;-62
2023/04/26 02:52:12;;;;;;;19.00;8.43;;;1.50;99.90;;;;;;4998722;28;20274;-62
2023/04/26 02:54:40;;;;;;;16.93;8.67;;;1.50;99.90;;;;;;4998202;28;20261;-63
2023/04/26 02:57:08;;;;;;;23.87;9.00;;;1.50;99.90;;;;;;4997136;28;20310;-62
2023/04/26 02:59:37;;;;;;;16.10;8.53;;;1.50;99.90;;;;;;4990935;28;20218;-63
2023/04/26 03:02:05;;;;;;;17.17;8.60;;;1.40;99.90;;;;;;4996481;28;20296;-62
2023/04/26 03:04:34;;;;;;;16.77;7.93;;;1.40;99.90;;;;;;4985648;28;20278;-62
2023/04/26 03:07:04;;;;;;;14.13;7.57;;;1.40;99.90;;;;;;4970699;28;20222;-62
2023/04/26 03:09:33;;;;;;;19.97;8.53;;;1.40;99.90;;;;;;4993169;28;20273;-62
2023/04/26 03:12:02;;;;;;;15.60;8.67;;;1.40;99.90;;;;;;4995000;28;20222;-62
2023/04/26 03:14:32;;;;;;;18.47;8.80;;;1.30;99.90;;;;;;4995752;28;20229;-62
2023/04/26 03:17:00;;;;;;;17.77;9.03;;;1.30;99.90;;;;;;4993136;28;20217;-62
2023/04/26 03:19:29;;;;;;;23.63;9.33;;;1.40;99.90;;;;;;4988770;28;20295;-62
2023/04/26 03:21:57;;;;;;;21.33;8.90;;;1.50;99.90;;;;;;4996618;28;20277;-63
2023/04/26 03:24:27;;;;;;;22.90;9.50;;;1.40;99.90;;;;;;4985300;28;20235;-62
2023/04/26 03:26:55;;;;;;;24.87;9.33;;;1.40;99.90;;;;;;4975773;28;20310;-62
2023/04/26 03:29:23;;;;;;;18.20;8.40;;;1.40;99.90;;;;;;4980369;28;20231;-62
2023/04/26 03:31:51;;;;;;;19.60;8.80;;;1.40;99.90;;;;;;4997359;28;20246;-62
2023/04/26 03:34:19;;;;;;;19.73;8.60;;;1.30;99.90;;;;;;4996075;28;20195;-63
2023/04/26 03:36:48;;;;;;;22.20;9.17;;;1.30;99.90;;;;;;4990999;28;20277;-62
2023/04/26 03:39:16;;;;;;;19.83;8.70;;;1.30;99.90;;;;;;4968637;28;20223;-62
2023/04/26 03:41:46;;;;;;;20.60;8.10;;;1.30;99.90;;;;;;5001447;28;20223;-62
2023/04/26 03:44:14;;;;;;;18.87;8.37;;;1.30;99.90;;;;;;4993302;28;20226;-62
2023/04/26 03:46:42;;;;;;;20.60;8.30;;;1.20;99.90;;;;;;4996348;28;20727;-62
2023/04/26 03:49:11;;;;;;;14.83;8.40;;;1.20;99.90;;;;;;4993111;28;20221;-62
2023/04/26 03:51:39;;;;;;;16.30;8.60;;;1.20;99.90;;;;;;4995940;28;20226;-63
2023/04/26 03:54:07;;;;;;;15.10;8.07;;;1.20;99.90;;;;;;4992881;28;20219;-62
2023/04/26 03:56:36;;;;;;;16.87;8.27;;;1.30;99.90;;;;;;4984331;28;20290;-62
2023/04/26 03:59:06;;;;;;;17.87;8.93;;;1.30;99.90;;;;;;4994840;28;20268;-62
2023/04/26 04:01:35;;;;;;;20.10;8.33;;;1.40;99.90;;;;;;4964942;28;20193;-62
2023/04/26 04:04:03;;;;;;;18.13;8.70;;;1.40;99.90;;;;;;4994239;28;20194;-63
2023/04/26 04:06:32;;;;;;;17.83;8.30;;;1.30;99.90;;;;;;4994486;28;20228;-62
2023/04/26 04:09:00;;;;;;;19.33;8.43;;;1.30;99.90;;;;;;4985274;28;20221;-63
2023/04/26 04:11:28;;;;;;;21.30;8.93;;;1.30;99.90;;;;;;4992002;28;20637;-62
2023/04/26 04:13:56;;;;;;;15.47;9.07;;;1.40;99.90;;;;;;4993399;28;20233;-62
2023/04/26 04:16:26;;;;;;;20.80;8.73;;;1.40;99.90;;;;;;4991388;28;20188;-63
2023/04/26 04:18:54;;;;;;;16.40;8.13;;;1.50;99.90;;;;;;4990047;28;20214;-63
2023/04/26 04:21:22;;;;;;;16.70;8.77;;;1.50;99.90;;;;;;4992204;28;20219;-63
2023/04/26 04:23:52;;;;;;;19.40;8.90;;;1.50;99.90;;;;;;4995910;28;20739;-62
2023/04/26 04:26:20;;;;;;;22.33;8.37;;;1.50;99.90;;;;;;4993005;28;20262;-62
2023/04/26 04:28:48;;;;;;;17.63;8.27;;;1.60;99.90;;;;;;4992934;28;20281;-62
2023/04/26 04:31:16;;;;;;;21.60;8.83;;;1.60;99.90;;;;;;4989492;28;20277;-62
2023/04/26 04:33:46;;;;;;;22.53;9.50;;;1.60;99.90;;;;;;4998566;28;20301;-63
2023/04/26 04:36:15;;;;;;;20.67;9.37;;;1.60;99.90;;;;;;4995100;28;20215;-62
2023/04/26 04:38:44;;;;;;;14.90;8.50;;;1.60;99.90;;;;;;4999356;28;20225;-62
2023/04/26 04:41:13;;;;;;;19.53;8.70;;;1.70;99.90;;;;;;4989344;28;20227;-62
2023/04/26 04:43:41;;;;;;;23.00;9.00;;;1.70;99.90;;;;;;4989243;28;20556;-62
2023/04/26 04:46:10;;;;;;;23.33;9.63;;;1.70;99.90;;;;;;4989654;28;20538;-63
2023/04/26 04:48:43;;;;;;;24.83;8.80;;;1.80;99.90;;;;;;4990273;28;20219;-62
2023/04/26 04:51:12;;;;;;;19.07;9.43;;;1.90;99.90;;;;;;4971953;28;20777;-63
2023/04/26 04:53:41;;;;;;;16.93;8.80;;;1.90;99.90;;;;;;4990808;28;20226;-64
2023/04/26 04:56:09;;;;;;;19.50;9.67;;;2.00;99.90;;;;;;4997035;28;20276;-62
2023/04/26 04:58:37;;;;;;;15.97;8.60;;;2.00;99.90;;;;;;4989382;28;20191;-62
2023/04/26 05:01:05;;;;;;;26.30;8.97;;;1.90;99.90;;;;;;4987049;28;20190;-63
2023/04/26 05:03:34;;;;;;;19.77;9.43;;;2.00;99.90;;;;;;4984882;28;20223;-63
2023/04/26 05:06:05;;;;;;;18.77;9.57;;;2.00;99.90;;;;;;4988214;28;20249;-63
2023/04/26 05:08:35;;;;;;;26.93;9.07;;;2.00;99.90;;;;;;4984176;28;20280;-63
2023/04/26 05:11:03;;;;;;;21.97;9.23;;;2.00;99.90;;;;;;4990100;28;20223;-63
2023/04/26 05:13:32;;;;;;;16.80;8.47;;;2.00;99.90;;;;;;4988592;28;20190;-63
2023/04/26 05:16:00;;;;;;;19.23;9.07;;;2.00;99.90;;;;;;4979607;28;20183;-63
2023/04/26 05:18:28;;;;;;;19.43;8.67;;;2.10;99.90;;;;;;4986138;28;20229;-64
2023/04/26 05:20:58;;;;;;;22.40;9.33;;;2.20;99.90;;;;;;4980321;28;20289;-63
2023/04/26 05:23:26;;;;;;;21.93;9.47;;;2.30;99.90;;;;;;4988315;28;20227;-63
2023/04/26 05:25:56;;;;;;;21.97;9.67;;;2.50;99.90;;;;;;4989945;28;20221;-63
2023/04/26 05:28:24;;;;;;;19.83;9.57;;;2.60;99.90;;;;;;4987766;28;20272;-63
2023/04/26 05:30:52;;;;;;;21.40;9.80;;;2.70;99.90;;;;;;4985619;28;20223;-63
2023/04/26 05:33:20;;;;;;;27.37;10.63;;;2.80;99.90;;;;;;4982297;28;20257;-63
2023/04/26 05:35:49;;;;;;;64.77;29.37;;;2.90;99.90;;;;;;4993699;28;20224;-64
2023/04/26 05:38:17;;;;;;;20.57;10.37;;;3.10;99.90;;;;;;4988028;28;20260;-63
2023/04/26 05:40:47;;;;;;;16.50;8.60;;;3.20;99.90;;;;;;4988399;28;20227;-63
2023/04/26 05:43:16;;;;;;;15.60;8.17;;;3.30;99.90;;;;;;4966387;28;20194;-64
2023/04/26 05:45:51;;;;;;;23.33;8.77;;;3.30;99.90;;;;;;4982055;28;20780;-63
2023/04/26 05:48:21;;;;;;;13.83;8.13;;;3.30;99.90;;;;;;4987271;28;20596;-63
2023/04/26 05:50:49;;;;;;;20.13;9.03;;;3.40;99.90;;;;;;4980399;28;20242;-63
2023/04/26 05:53:19;;;;;;;17.37;9.03;;;3.50;99.90;;;;;;4982943;28;20684;-63
2023/04/26 05:55:47;;;;;;;20.30;8.60;;;3.60;99.90;;;;;;4980754;28;20222;-63
2023/04/26 05:58:16;;;;;;;21.50;8.53;;;3.70;99.90;;;;;;4959017;28;20198;-63
2023/04/26 06:00:45;;;;;;;22.30;9.17;;;3.90;99.90;;;;;;4981104;28;20222;-64
2023/04/26 06:03:13;;;;;;;16.57;8.60;;;4.20;99.90;;;;;;4981990;28;20638;-64
2023/04/26 06:05:42;;;;;;;27.30;9.33;;;4.50;99.90;;;;;;4985792;28;20238;-64
2023/04/26 06:08:10;;;;;;;30.00;9.33;;;4.80;99.90;;;;;;4979963;28;20243;-65
2023/04/26 06:10:38;;;;;;;27.97;8.43;;;4.90;99.90;;;;;;4994081;28;20290;-63
2023/04/26 06:13:07;;;;;;;21.23;8.10;;;5.00;99.90;;;;;;4993904;28;20249;-64
2023/04/26 06:15:36;;;;;;;29.37;8.63;;;5.10;99.90;;;;;;4991896;28;20225;-63
2023/04/26 06:18:05;;;;;;;25.13;9.00;;;5.10;99.90;;;;;;4992700;28;20237;-63
2023/04/26 06:20:33;;;;;;;17.37;9.00;;;5.20;99.90;;;;;;4986422;28;20226;-64
2023/04/26 06:23:02;;;;;;;17.37;8.93;;;5.20;99.90;;;;;;4999368;28;20225;-63
2023/04/26 06:25:30;;;;;;;19.67;9.53;;;5.20;99.90;;;;;;5002372;28;20208;-62
2023/04/26 06:27:59;;;;;;;17.67;9.67;;;5.30;99.90;;;;;;4993033;28;20306;-64
2023/04/26 06:30:27;;;;;;;19.17;9.37;;;5.30;99.90;;;;;;4988953;28;20572;-64
2023/04/26 06:32:58;;;;;;;21.90;9.77;;;5.30;99.90;;;;;;4997226;28;20214;-64
2023/04/26 06:35:27;;;;;;;22.67;10.13;;;5.30;99.90;;;;;;4998876;28;20572;-63
2023/04/26 06:37:55;;;;;;;24.67;11.07;;;5.40;99.90;;;;;;4988337;28;20245;-63
2023/04/26 06:40:23;;;;;;;27.57;11.00;;;5.40;99.90;;;;;;4997812;28;20191;-64
2023/04/26 06:42:53;;;;;;;22.93;11.67;;;5.50;99.90;;;;;;4976113;28;20219;-63
2023/04/26 06:45:21;;;;;;;18.77;10.03;;;5.60;99.90;;;;;;4995040;28;20278;-63
2023/04/26 06:47:51;;;;;;;17.53;9.67;;;5.80;99.90;;;;;;4996978;28;20219;-64
2023/04/26 06:50:21;;;;;;;18.53;9.70;;;6.00;99.90;;;;;;4987443;28;20681;-63
2023/04/26 06:52:50;;;;;;;18.33;9.03;;;6.20;99.90;;;;;;5002575;28;20564;-63
2023/04/26 06:55:18;;;;;;;16.97;9.53;;;6.30;99.90;;;;;;4987471;28;20639;-63
2023/04/26 06:57:47;;;;;;;21.20;8.97;;;6.30;99.90;;;;;;4992329;28;20211;-63
2023/04/26 07:00:16;;;;;;;19.80;9.10;;;6.30;99.90;;;;;;4990983;28;20238;-64
2023/04/26 07:02:45;;;;;;;16.20;9.00;;;6.30;99.90;;;;;;4987622;28;20317;-63
2023/04/26 07:05:14;;;;;;;15.33;8.40;;;6.30;99.90;;;;;;4985592;28;20297;-63
2023/04/26 07:07:44;;;;;;;19.80;8.97;;;6.40;99.90;;;;;;4996510;28;20310;-63
2023/04/26 07:10:13;;;;;;;15.97;9.00;;;6.60;99.90;;;;;;4981588;28;20203;-63
2023/04/26 07:12:41;;;;;;;15.13;8.60;;;6.60;99.90;;;;;;4986794;28;20222;-63
2023/04/26 07:15:10;;;;;;;24.00;8.40;;;6.70;99.90;;;;;;4983421;28;20223;-63
2023/04/26 07:17:38;;;;;;;17.87;8.70;;;6.80;99.90;;;;;;4987759;28;20219;-63
2023/04/26 07:20:09;;;;;;;19.23;9.50;;;7.00;99.90;;;;;;4991964;28;20695;-63
2023/04/26 07:22:37;;;;;;;18.07;8.70;;;7.20;99.90;;;;;;4989572;28;20198;-63
2023/04/26 07:25:07;;;;;;;15.37;8.00;;;7.50;99.90;;;;;;4995168;28;20218;-63
2023/04/26 07:27:36;;;;;;;26.93;9.10;;;7.90;99.90;;;;;;4966578;28;20227;-63
2023/04/26 07:30:05;;;;;;;21.30;9.20;;;8.20;99.90;;;;;;4985554;28;20629;-63
2023/04/26 07:32:33;;;;;;;16.60;8.87;;;8.30;99.90;;;;;;4991113;28;20692;-63
2023/04/26 07:35:03;;;;;;;14.53;6.63;;;8.40;99.90;;;;;;4983340;28;20218;-63
2023/04/26 07:37:31;;;;;;;13.43;7.23;;;8.50;99.90;;;;;;4985265;28;20710;-62
2023/04/26 07:40:00;;;;;;;14.40;7.43;;;8.60;99.90;;;;;;4994265;28;20637;-64
2023/04/26 07:42:29;;;;;;;10.57;6.47;;;8.60;99.90;;;;;;4989973;28;20280;-63
2023/04/26 07:44:57;;;;;;;13.13;7.60;;;8.60;99.90;;;;;;4992333;28;20215;-63
2023/04/26 07:47:26;;;;;;;10.33;6.87;;;8.80;99.90;;;;;;4995997;28;20214;-63
2023/04/26 07:49:54;;;;;;;14.83;6.30;;;8.90;99.90;;;;;;4988904;28;20219;-63
2023/04/26 07:52:22;;;;;;;10.33;5.20;;;9.10;99.90;;;;;;4990384;28;20211;-63
2023/04/26 07:54:51;;;;;;;13.23;5.40;;;9.60;99.90;;;;;;4992138;28;20221;-63
2023/04/26 07:57:19;;;;;;;6.77;2.90;;;9.80;99.90;;;;;;5003086;28;20230;-63
2023/04/26 07:59:49;;;;;;;6.93;4.27;;;9.80;99.90;;;;;;4983417;28;20219;-63
2023/04/26 08:02:17;;;;;;;8.60;6.20;;;9.60;99.90;;;;;;4998999;28;20314;-63
2023/04/26 08:04:54;;;;;;;12.80;6.17;;;9.50;99.90;;;;;;4997491;28;20225;-63
2023/04/26 08:07:23;;;;;;;10.40;5.70;;;9.60;99.90;;;;;;5006333;28;20206;-63
2023/04/26 08:09:51;;;;;;;12.90;6.43;;;9.90;99.90;;;;;;4998451;28;20230;-63
2023/04/26 08:12:19;;;;;;;7.60;6.00;;;10.20;99.90;;;;;;4998165;28;20581;-63
2023/04/26 08:14:49;;;;;;;8.60;4.70;;;10.70;99.90;;;;;;5006359;28;20246;-64
2023/04/26 08:17:19;;;;;;;9.87;5.43;;;11.20;99.90;;;;;;5009852;28;20283;-63
2023/04/26 08:19:47;;;;;;;11.93;5.53;;;11.70;99.90;;;;;;5005450;28;20222;-64
2023/04/26 08:22:16;;;;;;;12.50;5.13;;;12.10;99.90;;;;;;4996767;28;20182;-64
2023/04/26 08:24:48;;;;;;;11.80;5.40;;;12.50;99.90;;;;;;4997485;28;20224;-64
2023/04/26 08:27:17;;;;;;;14.80;5.77;;;12.60;99.90;;;;;;4996750;28;20242;-64
2023/04/26 08:29:46;;;;;;;14.03;6.30;;;12.60;99.90;;;;;;4988603;28;20241;-65
2023/04/26 08:32:16;;;;;;;10.60;5.93;;;12.40;99.90;;;;;;4997889;28;20226;-63
2023/04/26 08:34:44;;;;;;;8.77;5.00;;;12.20;99.90;;;;;;4989781;28;20230;-63
2023/04/26 08:37:13;;;;;;;9.80;5.27;;;12.20;99.90;;;;;;4993470;28;20249;-63
2023/04/26 08:39:41;;;;;;;9.13;4.77;;;12.10;99.90;;;;;;4988306;28;20212;-64
2023/04/26 08:42:15;;;;;;;8.73;4.87;;;12.00;99.90;;;;;;4994948;28;20226;-64
2023/04/26 08:44:44;;;;;;;11.03;5.27;;;11.70;99.90;;;;;;4994697;28;20265;-64
2023/04/26 08:47:19;;;;;;;6.30;3.87;;;11.80;99.90;;;;;;5000162;28;20223;-64
2023/04/26 08:49:52;;;;;;;7.43;3.70;;;12.00;99.90;;;;;;4992684;28;20228;-63
2023/04/26 08:52:22;;;;;;;8.83;3.83;;;12.00;99.90;;;;;;4995939;28;20276;-64
2023/04/26 08:54:52;;;;;;;7.23;3.80;;;12.10;99.90;;;;;;4992848;28;20219;-64
2023/04/26 08:57:21;;;;;;;8.40;3.40;;;12.60;99.90;;;;;;5000440;28;20219;-64
2023/04/26 08:59:50;;;;;;;6.17;3.93;;;13.40;99.90;;;;;;4991883;28;20249;-65
2023/04/26 09:02:21;;;;;;;6.03;3.23;;;13.70;99.90;;;;;;4996804;28;20226;-64
2023/04/26 09:04:51;;;;;;;7.50;3.47;;;13.30;99.90;;;;;;4991293;28;20255;-63
2023/04/26 09:07:22;;;;;;;8.47;3.10;;;13.60;99.90;;;;;;4994473;28;20534;-64
2023/04/26 09:09:51;;;;;;;5.60;3.20;;;14.10;99.90;;;;;;4996000;28;20233;-64
2023/04/26 09:12:20;;;;;;;6.67;2.97;;;14.50;99.90;;;;;;4992652;28;20234;-64
2023/04/26 09:14:49;;;;;;;5.63;3.20;;;14.70;99.90;;;;;;4999687;28;20236;-65
2023/04/26 09:17:29;;;;;;;8.40;3.47;;;15.40;99.90;;;;;;4991599;28;20233;-65
2023/04/26 09:19:58;;;;;;;5.87;3.60;;;15.80;99.90;;;;;;4986301;28;20220;-65
2023/04/26 09:22:31;;;;;;;6.93;3.23;;;16.20;99.90;;;;;;4993925;28;20208;-65
2023/04/26 09:25:00;;;;;;;3.83;3.00;;;16.70;99.90;;;;;;4987677;28;20204;-65
2023/04/26 09:27:37;;;;;;;6.00;3.00;;;16.10;99.90;;;;;;4992211;28;20277;-64
2023/04/26 09:30:08;;;;;;;4.17;3.00;;;15.50;99.90;;;;;;4987717;28;20219;-65
2023/04/26 09:32:52;;;;;;;7.07;2.93;;;15.30;99.90;;;;;;4985216;28;20222;-65
2023/04/26 09:35:27;;;;;;;6.30;2.87;;;15.00;99.90;;;;;;4991367;28;20309;-65
2023/04/26 09:37:58;;;;;;;7.00;2.90;;;14.80;99.90;;;;;;4994328;28;20280;-64
2023/04/26 09:40:37;;;;;;;7.47;3.33;;;14.20;99.90;;;;;;4985647;28;20228;-64
2023/04/26 09:43:08;;;;;;;5.60;3.10;;;13.80;99.90;;;;;;4973245;28;20190;-65
2023/04/26 09:45:45;;;;;;;5.43;3.13;;;13.70;99.90;;;;;;4991881;28;20223;-64
2023/04/26 09:48:16;;;;;;;8.47;3.37;;;13.80;99.90;;;;;;4989296;28;20237;-64
2023/04/26 09:50:47;;;;;;;6.27;3.17;;;14.00;99.90;;;;;;4992292;28;20636;-64
2023/04/26 09:53:29;;;;;;;7.50;3.17;;;13.70;99.90;;;;;;4990316;28;20302;-64
2023/04/26 09:56:07;;;;;;;10.03;3.50;;;13.40;99.90;;;;;;4991478;28;20630;-64
2023/04/26 09:58:36;;;;;;;6.27;3.10;;;13.20;99.90;;;;;;4987255;28;20196;-64
2023/04/26 10:01:06;;;;;;;7.90;3.47;;;13.10;99.90;;;;;;4990665;28;20649;-64
2023/04/26 10:03:37;;;;;;;8.23;3.60;;;12.90;99.90;;;;;;4991224;28;20219;-64
2023/04/26 10:06:06;;;;;;;9.70;3.70;;;13.10;99.90;;;;;;4989105;28;20697;-64
2023/04/26 10:08:36;;;;;;;11.13;3.60;;;13.30;99.90;;;;;;4973363;28;20240;-64
2023/04/26 10:11:06;;;;;;;7.47;3.07;;;13.50;99.90;;;;;;4976519;28;20280;-64
2023/04/26 10:13:35;;;;;;;6.33;3.87;;;13.50;99.90;;;;;;4990085;28;20188;-64
2023/04/26 10:16:05;;;;;;;7.83;3.30;;;13.60;99.90;;;;;;5000869;28;20187;-64
2023/04/26 10:18:34;;;;;;;7.57;3.50;;;13.40;99.90;;;;;;4980741;28;20214;-64
2023/04/26 10:21:08;;;;;;;5.77;4.13;;;13.50;99.90;;;;;;5003860;28;20680;-64
2023/04/26 10:23:37;;;;;;;5.07;3.57;;;13.50;99.90;;;;;;4993034;28;20699;-64
2023/04/26 10:26:06;;;;;;;5.40;3.60;;;13.50;99.90;;;;;;4993331;28;20222;-65
2023/04/26 10:28:57;;;;;;;3.77;3.30;;;13.60;99.90;;;;;;4986982;28;20203;-63
2023/04/26 10:32:03;;;;;;;9.13;3.93;;;13.80;99.90;;;;;;4985055;28;20652;-61
2023/04/26 10:34:33;;;;;;;8.23;3.80;;;13.90;99.90;;;;;;4975638;28;20217;-63
2023/04/26 10:37:10;;;;;;;6.77;3.90;;;14.30;99.90;;;;;;4988764;28;20195;-64
2023/04/26 10:39:39;;;;;;;10.90;3.60;;;15.20;99.90;;;;;;4989332;28;20232;-64
2023/04/26 10:42:23;;;;;;;11.07;3.70;;;16.00;99.90;;;;;;4992846;28;20281;-64
2023/04/26 10:44:53;;;;;;;6.30;3.53;;;16.90;99.90;;;;;;4990929;28;20222;-64
2023/04/26 10:47:24;;;;;;;10.53;4.47;;;17.10;99.90;;;;;;4995419;28;20226;-64
2023/04/26 10:49:52;;;;;;;3.93;3.57;;;17.10;99.90;;;;;;4969928;28;20231;-64
2023/04/26 10:52:25;;;;;;;4.70;3.57;;;17.10;99.90;;;;;;4983850;28;20702;-64
2023/04/26 10:54:55;;;;;;;9.27;4.07;;;17.00;99.90;;;;;;4989551;28;20673;-64
2023/04/26 10:57:45;;;;;;;9.40;4.70;;;15.90;99.90;;;;;;4995468;28;20219;-64
2023/04/26 11:00:28;;;;;;;8.30;4.53;;;15.40;99.90;;;;;;4987738;28;20222;-63
2023/04/26 11:03:03;;;;;;;7.27;5.13;;;14.50;99.90;;;;;;4976240;28;20219;-63
2023/04/26 11:05:54;;;;;;;9.20;5.60;;;14.20;99.90;;;;;;4982360;28;20278;-63
2023/04/26 11:08:30;;;;;;;9.17;5.53;;;14.00;99.90;;;;;;4984747;28;20220;-64
2023/04/26 11:11:08;;;;;;;10.83;6.27;;;13.80;99.90;;;;;;4980138;28;20239;-63
2023/04/26 11:13:38;;;;;;;8.80;6.20;;;13.70;99.90;;;;;;4983648;28;20207;-63
2023/04/26 11:16:08;;;;;;;9.87;6.07;;;13.60;99.90;;;;;;4989731;28;20230;-64
2023/04/26 11:18:38;;;;;;;11.13;6.23;;;13.50;99.90;;;;;;4985659;28;20223;-64
2023/04/26 11:21:07;;;;;;;9.37;5.63;;;13.60;99.90;;;;;;4987726;28;20223;-64
2023/04/26 11:23:37;;;;;;;11.50;7.20;;;13.70;99.90;;;;;;4993998;28;20274;-64
2023/04/26 11:26:07;;;;;;;14.70;7.30;;;13.50;99.90;;;;;;4988038;28;20291;-63
2023/04/26 11:28:37;;;;;;;11.20;6.83;;;13.30;99.90;;;;;;4988235;28;20535;-63
2023/04/26 11:31:07;;;;;;;9.00;6.97;;;13.30;99.90;;;;;;4989886;28;20882;-64
2023/04/26 11:33:35;;;;;;;12.87;7.17;;;13.30;99.90;;;;;;4988022;28;20749;-64
2023/04/26 11:36:04;;;;;;;14.40;8.47;;;13.50;99.90;;;;;;4989632;28;20231;-63
2023/04/26 11:38:32;;;;;;;13.43;8.93;;;13.40;99.90;;;;;;4994576;28;20210;-63
2023/04/26 11:41:03;;;;;;;12.83;9.53;;;13.50;99.90;;;;;;4995724;28;20219;-63
2023/04/26 11:43:35;;;;;;;18.77;9.87;;;13.30;99.90;;;;;;4989793;28;20670;-63
2023/04/26 11:46:04;;;;;;;14.47;9.53;;;13.70;99.90;;;;;;4992010;28;20253;-64
2023/04/26 11:48:35;;;;;;;12.90;9.27;;;13.80;99.90;;;;;;4997721;28;20223;-64
2023/04/26 11:51:05;;;;;;;12.47;8.57;;;13.80;99.90;;;;;;4995339;28;20231;-63
2023/04/26 11:53:39;;;;;;;14.13;8.87;;;13.90;99.90;;;;;;5002806;28;20264;-64
2023/04/26 11:56:16;;;;;;;11.60;8.00;;;14.20;99.90;;;;;;4990470;28;20697;-64
2023/04/26 11:58:46;;;;;;;10.70;7.90;;;14.60;99.90;;;;;;4990154;28;20218;-64
2023/04/26 12:01:22;;;;;;;15.83;8.93;;;14.20;99.90;;;;;;4990670;28;20192;-64
2023/04/26 12:03:51;;;;;;;14.17;9.10;;;14.10;99.90;;;;;;4985951;28;20209;-64
2023/04/26 12:06:20;;;;;;;15.33;9.37;;;14.30;99.90;;;;;;4988854;28;20244;-64
2023/04/26 12:08:52;;;;;;;15.43;10.03;;;14.70;99.90;;;;;;4994726;28;20230;-64
2023/04/26 12:11:22;;;;;;;12.33;9.57;;;15.20;99.90;;;;;;4988754;28;20241;-64
2023/04/26 12:13:50;;;;;;;14.50;9.30;;;15.60;99.90;;;;;;4984212;28;20286;-64
2023/04/26 12:16:18;;;;;;;14.03;9.50;;;16.10;99.90;;;;;;4981437;28;20253;-64
2023/04/26 12:18:54;;;;;;;11.10;9.30;;;16.20;99.90;;;;;;4976127;28;20251;-64
2023/04/26 12:21:23;;;;;;;14.87;9.43;;;16.20;99.90;;;;;;4982152;28;20216;-65
2023/04/26 12:23:52;;;;;;;11.73;8.83;;;16.10;99.90;;;;;;4991259;28;20254;-64
2023/04/26 12:26:21;;;;;;;12.67;9.23;;;16.10;99.90;;;;;;4989041;28;20604;-64
2023/04/26 12:28:50;;;;;;;15.57;8.97;;;15.90;99.90;;;;;;4994649;28;20252;-64
2023/04/26 12:31:18;;;;;;;17.47;9.07;;;15.90;99.90;;;;;;4987377;28;20229;-64
2023/04/26 12:33:47;;;;;;;12.10;8.80;;;15.90;99.90;;;;;;4980130;28;20561;-64
2023/04/26 12:36:15;;;;;;;11.37;8.17;;;16.00;99.90;;;;;;4985470;28;20750;-64
2023/04/26 12:38:43;;;;;;;16.43;9.93;;;16.10;99.90;;;;;;4977102;28;20218;-64
2023/04/26 12:41:11;;;;;;;19.30;10.73;;;16.00;99.90;;;;;;4982369;28;20276;-64
2023/04/26 12:43:41;;;;;;;15.43;10.13;;;15.70;99.90;;;;;;4983545;28;20188;-63
2023/04/26 12:46:09;;;;;;;15.73;11.07;;;15.30;99.90;;;;;;4981131;28;20712;-64
2023/04/26 12:48:38;;;;;;;14.13;10.27;;;15.00;99.90;;;;;;5005443;28;20233;-64
2023/04/26 12:51:06;;;;;;;17.00;11.00;;;15.20;99.90;;;;;;4976674;28;20269;-64
2023/04/26 12:53:35;;;;;;;15.43;10.77;;;15.50;99.90;;;;;;4992625;28;20240;-64
2023/04/26 12:56:03;;;;;;;15.23;10.53;;;15.70;99.90;;;;;;4988639;28;20257;-64
2023/04/26 12:58:31;;;;;;;14.27;10.20;;;15.90;99.90;;;;;;4981247;28;20254;-63
2023/04/26 13:01:01;;;;;;;14.87;11.30;;;16.00;99.90;;;;;;4978829;28;20246;-64